Time;durP1;ratioP1;P1;durP2;ratioP2;P2;SDS_P1;SDS_P2;PMS_P1;PMS_P2;Temp;Humidity;BMP_temperature;BMP_pressure;BME280_temperature;BME280_humidity;BME280_pressure;Samples;Min_cycle;Max_cycle;Signal;HPM_P1;HPM_P2
2022/11/09 00:03:47;;;;;;;4.75;2.25;;;;;;;12.14;91.83;100337.47;10374543;28;20119;-81
2022/11/09 00:08:47;;;;;;;9.35;2.75;;;;;;;11.85;93.33;100328.56;10379805;28;20045;-81
2022/11/09 00:13:48;;;;;;;7.07;2.85;;;;;;;11.76;94.34;100321.31;10364038;28;20121;-82
2022/11/09 00:18:49;;;;;;;6.32;2.13;;;;;;;11.74;95.28;100328.22;10365905;28;20593;-81
2022/11/09 00:23:50;;;;;;;5.22;2.10;;;;;;;11.63;95.28;100326.97;10366397;28;20096;-81
2022/11/09 00:28:50;;;;;;;5.63;1.95;;;;;;;11.56;96.00;100337.22;10365388;28;20084;-81
2022/11/09 00:33:52;;;;;;;4.03;2.35;;;;;;;11.57;96.93;100335.47;10378715;28;20056;-80
2022/11/09 00:38:57;;;;;;;6.50;2.08;;;;;;;11.52;96.81;100335.34;10379608;28;20049;-80
2022/11/09 00:43:57;;;;;;;5.85;2.92;;;;;;;11.62;96.88;100326.06;10358658;28;20402;-81
2022/11/09 00:48:58;;;;;;;3.17;1.80;;;;;;;11.78;95.77;100332.72;10374411;28;20034;-80
2022/11/09 00:53:59;;;;;;;5.53;2.50;;;;;;;11.84;95.30;100332.03;10355951;28;20042;-82
2022/11/09 00:58:59;;;;;;;7.35;2.45;;;;;;;11.88;94.13;100340.06;10381063;28;20065;-82
2022/11/09 01:04:00;;;;;;;11.02;2.58;;;;;;;11.92;93.93;100345.41;10364563;28;20124;-81
2022/11/09 01:09:00;;;;;;;5.55;1.75;;;;;;;11.95;92.71;100340.28;10363334;28;20044;-82
2022/11/09 01:14:01;;;;;;;5.60;1.88;;;;;;;11.96;92.22;100340.31;10367298;28;20071;-79
2022/11/09 01:19:01;;;;;;;6.65;1.60;;;;;;;11.99;91.47;100342.16;10361393;28;20125;-79
2022/11/09 01:24:02;;;;;;;6.32;1.88;;;;;;;11.85;91.63;100349.53;10373916;28;20129;-80
2022/11/09 01:29:02;;;;;;;3.90;1.73;;;;;;;11.81;92.47;100353.81;10358376;28;20044;-80
2022/11/09 01:34:03;;;;;;;4.80;1.77;;;;;;;11.71;92.38;100356.94;10376398;28;20125;-79
2022/11/09 01:39:03;;;;;;;3.58;1.65;;;;;;;11.64;93.04;100355.81;10356509;28;20412;-79
2022/11/09 01:44:06;;;;;;;7.57;1.63;;;;;;;11.69;92.62;100356.88;10374441;28;20045;-78
2022/11/09 01:49:30;;;;;;;3.75;1.83;;;;;;;11.62;93.06;100357.50;10360310;28;20497;-79
2022/11/09 01:54:36;;;;;;;4.70;2.00;;;;;;;11.57;92.41;100348.59;10341208;28;20065;-78
2022/11/09 01:59:39;;;;;;;5.38;2.03;;;;;;;11.46;93.28;100361.31;10359290;28;20068;-79
2022/11/09 02:04:49;;;;;;;4.65;2.08;;;;;;;11.33;94.19;100359.09;10350033;28;20034;-79
2022/11/09 02:09:54;;;;;;;5.00;1.35;;;;;;;11.19;94.05;100362.09;10351470;28;20037;-80
2022/11/09 02:14:55;;;;;;;4.78;1.67;;;;;;;11.22;94.82;100363.94;10373662;28;20069;-80
2022/11/09 02:19:58;;;;;;;4.43;1.83;;;;;;;11.37;93.64;100372.34;10373897;28;20133;-79
2022/11/09 02:24:59;;;;;;;6.05;2.00;;;;;;;11.33;93.28;100386.16;10363671;28;20046;-80
2022/11/09 02:29:59;;;;;;;3.88;1.52;;;;;;;11.13;93.35;100386.31;10372042;28;20498;-79
2022/11/09 02:35:00;;;;;;;4.75;1.55;;;;;;;11.03;94.57;100389.44;10374240;28;20057;-79
2022/11/09 02:40:02;;;;;;;6.95;2.17;;;;;;;11.16;94.41;100394.28;10378021;28;20041;-79
2022/11/09 02:45:03;;;;;;;4.95;1.88;;;;;;;11.22;94.02;100393.66;10371490;28;20379;-80
2022/11/09 02:50:04;;;;;;;5.50;1.45;;;;;;;11.36;92.36;100388.91;10383032;28;20041;-79
2022/11/09 02:55:05;;;;;;;4.90;2.65;;;;;;;11.25;93.13;100385.00;10376119;28;20034;-80
2022/11/09 03:00:06;;;;;;;11.32;1.92;;;;;;;11.28;93.23;100380.78;10366223;28;20046;-79
2022/11/09 03:05:07;;;;;;;5.25;1.50;;;;;;;11.21;93.34;100377.84;10373887;28;20471;-79
2022/11/09 03:10:08;;;;;;;5.43;3.38;;;;;;;11.15;93.96;100374.19;10382956;28;20041;-79
2022/11/09 03:15:10;;;;;;;4.93;1.85;;;;;;;11.27;93.78;100376.38;10368218;28;20654;-80
2022/11/09 03:20:10;;;;;;;12.80;2.65;;;;;;;11.26;93.56;100384.16;10386677;28;20191;-79
2022/11/09 03:25:11;;;;;;;7.72;2.25;;;;;;;11.28;93.79;100387.72;10381318;28;20076;-79
2022/11/09 03:30:11;;;;;;;5.50;1.63;;;;;;;11.49;92.60;100379.78;10371081;28;20129;-78
2022/11/09 03:35:12;;;;;;;5.10;1.85;;;;;;;11.55;92.14;100392.19;10382254;28;20096;-79
2022/11/09 03:40:12;;;;;;;8.77;2.13;;;;;;;11.69;91.32;100382.22;10375598;28;20375;-78
2022/11/09 03:45:14;;;;;;;9.80;2.00;;;;;;;11.69;91.29;100382.22;10387586;28;20061;-78
2022/11/09 03:50:15;;;;;;;8.93;1.67;;;;;;;11.82;90.30;100394.91;10358333;28;20046;-78
2022/11/09 03:55:15;;;;;;;7.38;3.10;;;;;;;11.85;89.90;100417.72;10387534;28;20041;-79
2022/11/09 04:00:17;;;;;;;6.80;1.88;;;;;;;11.96;89.87;100429.47;10370547;28;20100;-79
2022/11/09 04:05:18;;;;;;;8.90;3.53;;;;;;;11.84;91.49;100423.81;10375833;28;20036;-79
2022/11/09 04:10:19;;;;;;;3.95;1.35;;;;;;;11.69;92.48;100435.53;10346722;28;20494;-79
2022/11/09 04:15:20;;;;;;;8.48;1.98;;;;;;;11.59;93.51;100442.19;10377285;28;20030;-79
2022/11/09 04:20:20;;;;;;;6.25;1.70;;;;;;;11.61;93.88;100444.84;10376593;28;20128;-79
2022/11/09 04:25:21;;;;;;;10.20;1.83;;;;;;;11.66;92.99;100442.41;10369423;28;20125;-79
2022/11/09 04:30:22;;;;;;;11.35;4.03;;;;;;;11.81;91.38;100439.41;10363936;28;20371;-78
2022/11/09 04:35:22;;;;;;;6.53;2.10;;;;;;;11.81;90.69;100450.81;10344803;28;20044;-80
2022/11/09 04:40:24;;;;;;;4.38;2.05;;;;;;;11.96;89.68;100453.09;10369392;28;20044;-79
2022/11/09 04:45:25;;;;;;;4.38;1.50;;;;;;;11.96;89.34;100447.84;10372731;28;20537;-80
2022/11/09 04:50:25;;;;;;;13.57;2.20;;;;;;;12.00;88.90;100452.38;10361155;28;20042;-80
2022/11/09 04:55:26;;;;;;;5.40;2.10;;;;;;;11.99;89.19;100458.44;10378465;28;20444;-80
2022/11/09 05:00:26;;;;;;;4.95;1.75;;;;;;;11.79;90.14;100465.59;10369064;28;20133;-80
2022/11/09 05:05:28;;;;;;;5.55;1.70;;;;;;;11.57;90.93;100467.44;10377620;28;20256;-80
2022/11/09 05:10:28;;;;;;;7.40;2.22;;;;;;;11.57;90.96;100470.06;10374543;28;20868;-80
2022/11/09 05:15:29;;;;;;;8.82;2.75;;;;;;;11.36;91.58;100462.28;10362807;28;20129;-80
2022/11/09 05:20:30;;;;;;;6.43;1.73;;;;;;;10.99;93.02;100464.38;10374980;28;20595;-79
2022/11/09 05:25:30;;;;;;;7.43;2.17;;;;;;;10.90;94.70;100460.47;10357821;28;20052;-79
2022/11/09 05:30:31;;;;;;;8.32;1.90;;;;;;;10.65;95.01;100463.03;10358826;28;20128;-79
2022/11/09 05:35:32;;;;;;;5.43;1.67;;;;;;;10.58;97.41;100472.31;10370345;28;20164;-79
2022/11/09 05:40:33;;;;;;;6.88;2.17;;;;;;;10.58;97.01;100467.09;10382281;28;20599;-79
2022/11/09 05:45:37;;;;;;;5.95;1.90;;;;;;;10.42;97.72;100464.66;10374990;28;20037;-78
2022/11/09 05:50:38;;;;;;;7.68;3.22;;;;;;;10.35;99.05;100473.97;10375327;28;20164;-79
2022/11/09 05:55:38;;;;;;;7.07;1.88;;;;;;;10.32;99.79;100470.31;10349105;28;20038;-79
2022/11/09 06:00:39;;;;;;;8.07;3.05;;;;;;;10.18;99.35;100465.38;10360489;28;20045;-79
2022/11/09 06:05:39;;;;;;;4.85;1.75;;;;;;;10.03;99.93;100465.63;10376722;28;20483;-81
2022/11/09 06:10:40;;;;;;;4.15;2.00;;;;;;;10.11;100.00;100469.47;10356000;28;20417;-80
2022/11/09 06:15:41;;;;;;;10.90;2.53;;;;;;;10.00;100.00;100468.13;10338536;28;20116;-78
2022/11/09 06:20:41;;;;;;;10.85;2.10;;;;;;;9.93;100.00;100476.53;10367363;28;20562;-80
2022/11/09 06:25:42;;;;;;;9.00;1.88;;;;;;;9.82;100.00;100481.25;10382333;28;20047;-81
2022/11/09 06:30:42;;;;;;;8.82;1.88;;;;;;;9.72;100.00;100474.75;10343521;28;20398;-80
2022/11/09 06:35:43;;;;;;;7.40;2.42;;;;;;;9.67;100.00;100484.09;10380105;28;20052;-81
2022/11/09 06:40:43;;;;;;;5.60;2.28;;;;;;;9.72;100.00;100485.19;10381290;28;20037;-81
2022/11/09 06:45:44;;;;;;;6.18;2.75;;;;;;;9.59;100.00;100499.41;10369461;28;20065;-80
2022/11/09 06:50:44;;;;;;;6.03;2.83;;;;;;;9.76;100.00;100496.66;10395006;28;20044;-80
2022/11/09 06:55:45;;;;;;;7.47;2.17;;;;;;;9.73;100.00;100497.44;10376913;28;20053;-79
2022/11/09 07:00:45;;;;;;;4.25;2.17;;;;;;;9.66;100.00;100505.81;10376451;28;20045;-81
2022/11/09 07:05:47;;;;;;;5.78;2.08;;;;;;;9.64;100.00;100516.19;10378390;28;20490;-80
2022/11/09 07:10:47;;;;;;;12.95;5.57;;;;;;;9.54;100.00;100520.13;10361716;28;20473;-80
2022/11/09 07:15:52;;;;;;;21.77;11.57;;;;;;;9.67;100.00;100525.91;10367800;28;20176;-79
2022/11/09 07:20:52;;;;;;;9.02;3.53;;;;;;;9.76;100.00;100523.72;10372569;28;20038;-79
2022/11/09 07:25:53;;;;;;;5.97;2.60;;;;;;;9.71;100.00;100530.44;10365744;28;20289;-78
2022/11/09 07:30:53;;;;;;;11.70;3.00;;;;;;;9.93;100.00;100540.13;10375126;28;20046;-78
2022/11/09 07:35:54;;;;;;;5.80;2.17;;;;;;;10.24;100.00;100540.63;10357007;28;20038;-79
2022/11/09 07:40:59;;;;;;;12.20;2.67;;;;;;;10.42;100.00;100543.16;10360613;28;20046;-78
2022/11/09 07:46:02;;;;;;;17.77;3.78;;;;;;;10.60;100.00;100535.22;10385100;28;20038;-78
2022/11/09 07:51:03;;;;;;;9.40;1.90;;;;;;;10.58;100.00;100540.38;10366810;28;20037;-78
2022/11/09 07:56:04;;;;;;;2.90;1.45;;;;;;;10.68;100.00;100548.59;10364025;28;20401;-79
2022/11/09 08:01:08;;;;;;;9.40;2.83;;;;;;;10.73;100.00;100560.16;10368702;28;20069;-78
2022/11/09 08:06:09;;;;;;;5.25;2.30;;;;;;;10.79;100.00;100559.53;10358402;28;20045;-79
2022/11/09 08:11:09;;;;;;;8.18;2.08;;;;;;;10.91;99.10;100565.28;10379288;28;20385;-78
2022/11/09 08:16:10;;;;;;;6.43;3.25;;;;;;;11.01;97.29;100562.22;10374705;28;20121;-79
2022/11/09 08:21:10;;;;;;;10.90;2.28;;;;;;;11.11;96.38;100571.31;10363545;28;20045;-81
2022/11/09 08:26:11;;;;;;;8.32;1.67;;;;;;;11.15;nan;100569.75;10382432;28;20124;-81
2022/11/09 08:31:11;;;;;;;8.25;3.17;;;;;;;11.16;95.42;100566.28;10371698;28;20060;-81
2022/11/09 08:36:13;;;;;;;10.13;3.38;;;;;;;11.22;94.57;100578.72;10366390;28;20117;-79
2022/11/09 08:41:14;;;;;;;;;;;;;;;11.28;93.97;100574.66;10377501;28;20064;-80
2022/11/09 08:46:14;;;;;;;7.47;2.88;;;;;;;11.39;93.55;100584.66;10379023;28;19921;-80
2022/11/09 08:51:15;;;;;;;6.53;2.38;;;;;;;11.66;92.37;100578.72;10373119;28;20069;-82
2022/11/09 08:56:17;;;;;;;8.82;3.55;;;;;;;11.99;90.83;100583.44;10383710;28;20512;-79
2022/11/09 09:01:18;;;;;;;7.18;2.03;;;;;;;12.31;87.46;100589.00;10377075;28;20208;-81
2022/11/09 09:06:19;;;;;;;7.78;3.58;;;;;;;12.60;86.05;100581.28;10359649;28;20095;-80
2022/11/09 09:11:19;;;;;;;6.80;2.08;;;;;;;12.73;83.10;100583.50;10363931;28;20052;-79
2022/11/09 09:16:20;;;;;;;6.10;1.63;;;;;;;12.71;82.27;100581.63;10323991;28;20129;-78
2022/11/09 09:21:20;;;;;;;6.10;2.10;;;;;;;12.92;82.42;100586.75;10371340;28;20037;-79
2022/11/09 09:26:21;;;;;;;5.85;2.00;;;;;;;13.19;79.81;100594.63;10368895;28;20571;-78
2022/11/09 09:31:21;;;;;;;7.00;1.70;;;;;;;13.56;79.04;100596.66;10371635;28;20034;-78
2022/11/09 09:36:22;;;;;;;7.82;3.08;;;;;;;14.30;73.90;100600.59;10378783;28;20045;-79
2022/11/09 09:41:34;;;;;;;14.68;6.68;;;;;;;15.94;69.83;100591.50;10382612;28;20497;-79
2022/11/09 09:46:37;;;;;;;5.10;2.05;;;;;;;18.30;58.82;100610.38;10379438;28;20163;-79
2022/11/09 09:51:52;;;;;;;10.00;2.90;;;;;;;19.60;53.12;100608.91;10357451;28;20037;-79
2022/11/09 09:56:54;;;;;;;5.22;2.50;;;;;;;20.04;50.98;100617.16;10361078;28;20042;-78
2022/11/09 10:01:57;;;;;;;5.53;2.25;;;;;;;19.57;50.87;100619.50;10364958;28;20107;-79
2022/11/09 10:07:12;;;;;;;10.15;2.95;;;;;;;20.65;49.20;100624.47;10376653;28;20049;-79
2022/11/09 10:12:43;;;;;;;6.57;1.48;;;;;;;20.17;48.36;100639.38;10355564;28;20057;-78
2022/11/09 10:18:08;;;;;;;10.18;2.35;;;;;;;19.74;50.19;100634.66;10358477;28;20474;-78
2022/11/09 10:23:47;;;;;;;11.00;1.90;;;;;;;18.04;54.76;100635.69;10356325;28;20046;-78
2022/11/09 10:28:52;;;;;;;6.90;2.13;;;;;;;19.39;51.77;100644.16;10355488;28;20397;-79
2022/11/09 10:33:55;;;;;;;6.15;1.70;;;;;;;19.86;47.70;100632.06;10341110;28;20049;-78
2022/11/09 10:38:57;;;;;;;10.43;2.28;;;;;;;19.03;49.17;100637.69;10356916;28;20132;-78
2022/11/09 10:43:58;;;;;;;8.35;1.60;;;;;;;19.12;49.56;100640.41;10324889;28;20689;-80
2022/11/09 10:49:17;;;;;;;7.43;2.05;;;;;;;19.22;49.55;100638.72;10356435;28;20042;-80
2022/11/09 10:54:20;;;;;;;8.05;1.73;;;;;;;18.54;50.66;100643.31;10357360;28;20092;-80
2022/11/09 10:59:43;;;;;;;14.27;2.63;;;;;;;18.02;53.56;100640.06;10358676;28;20046;-79
2022/11/09 11:04:44;;;;;;;11.48;3.88;;;;;;;16.80;56.28;100648.63;10364460;28;20121;-80
2022/11/09 11:09:45;;;;;;;7.45;2.05;;;;;;;16.29;58.22;100657.34;10346839;28;20064;-79
2022/11/09 11:14:45;;;;;;;8.43;2.85;;;;;;;16.23;59.93;100645.75;10360923;28;20120;-80
2022/11/09 11:19:46;;;;;;;4.03;1.30;;;;;;;16.17;59.94;100658.84;10326263;28;20397;-80
2022/11/09 11:24:55;;;;;;;4.88;1.92;;;;;;;16.55;57.42;100658.72;10362714;28;20121;-79
2022/11/09 11:30:07;;;;;;;9.20;1.95;;;;;;;16.54;58.35;100667.50;10365301;28;20092;-78
2022/11/09 11:35:16;;;;;;;7.70;1.50;;;;;;;16.31;58.51;100669.69;10360284;28;20398;-81
2022/11/09 11:40:28;;;;;;;8.13;1.73;;;;;;;15.70;60.71;100673.59;10362640;28;20175;-79
2022/11/09 11:45:33;;;;;;;9.90;2.28;;;;;;;15.54;62.25;100672.34;10345252;28;20041;-76
2022/11/09 11:50:40;;;;;;;7.32;1.80;;;;;;;14.78;64.85;100681.84;10360294;28;20030;-76
2022/11/09 11:55:59;;;;;;;17.20;5.43;;;;;;;15.17;64.77;100677.59;10361461;28;20084;-77
2022/11/09 12:01:26;;;;;;;5.90;1.42;;;;;;;16.39;60.29;100676.03;10362242;28;20486;-77
2022/11/09 12:06:44;;;;;;;10.40;2.88;;;;;;;15.90;61.21;100683.75;10352652;28;20048;-77
2022/11/09 12:11:54;;;;;;;9.40;2.10;;;;;;;16.77;58.32;100681.19;10345347;28;20064;-77
2022/11/09 12:17:04;;;;;;;6.13;1.73;;;;;;;17.01;57.35;100685.19;10361932;28;20050;-76
2022/11/09 12:22:28;;;;;;;13.05;2.42;;;;;;;15.30;61.05;100689.34;10362833;28;20042;-79
2022/11/09 12:27:52;;;;;;;8.60;1.67;;;;;;;14.36;64.84;100695.56;10359001;28;20050;-77
2022/11/09 12:33:04;;;;;;;7.15;3.50;;;;;;;14.22;66.61;100690.78;10322420;28;20042;-77
2022/11/09 12:38:05;;;;;;;;;;;;;;;14.65;65.15;100679.69;10354173;28;20040;-77
2022/11/09 12:43:24;;;;;;;9.32;3.53;;;;;;;16.78;57.29;100682.97;10361921;28;20383;-76
2022/11/09 12:48:27;;;;;;;6.18;2.17;;;;;;;14.65;64.42;100706.03;10344240;28;20038;-77
2022/11/09 12:53:31;;;;;;;10.52;3.25;;;;;;;13.95;73.07;100702.25;10358394;28;20085;-76
2022/11/09 12:58:33;;;;;;;7.85;2.13;;;;;;;15.11;67.36;100707.34;10342620;28;20833;-76
2022/11/09 13:03:37;;;;;;;18.45;3.83;;;;;;;14.65;67.75;100709.53;10344542;28;20386;-76
2022/11/09 13:08:38;;;;;;;9.07;1.88;;;;;;;14.62;67.54;100700.69;10340860;28;20402;-77
2022/11/09 13:13:38;;;;;;;8.13;2.42;;;;;;;13.83;70.41;100700.94;10359418;28;20030;-78
2022/11/09 13:18:39;;;;;;;7.70;2.05;;;;;;;13.34;73.34;100719.50;10358093;28;20121;-77
2022/11/09 13:23:39;;;;;;;6.30;2.45;;;;;;;13.18;76.05;100724.22;10358888;28;20048;-79
2022/11/09 13:28:41;;;;;;;8.75;2.35;;;;;;;12.92;77.60;100725.94;10366857;28;20500;-82
2022/11/09 13:33:41;;;;;;;7.20;2.45;;;;;;;12.77;77.49;100731.53;10353722;28;20418;-79
2022/11/09 13:38:42;;;;;;;8.32;2.08;;;;;;;14.96;70.69;100728.00;10358769;28;20060;-76
2022/11/09 13:43:42;;;;;;;5.85;2.45;;;;;;;16.36;63.97;100732.31;10356524;28;20144;-76
2022/11/09 13:48:44;;;;;;;6.85;2.20;;;;;;;16.88;63.29;100743.06;10343875;28;20075;-78
2022/11/09 13:53:59;;;;;;;5.80;2.70;;;;;;;16.43;61.58;100742.13;10342396;28;20042;-77
2022/11/09 13:59:28;;;;;;;7.57;1.98;;;;;;;14.68;68.05;100750.91;10352315;28;20041;-78
2022/11/09 14:04:29;;;;;;;10.77;2.92;;;;;;;13.67;71.58;100745.16;10356618;28;20042;-78
2022/11/09 14:10:00;;;;;;;9.57;1.83;;;;;;;13.39;73.07;100762.59;10351681;28;20096;-77
2022/11/09 14:15:07;;;;;;;10.07;2.72;;;;;;;13.28;73.77;100763.97;10356993;28;20490;-78
2022/11/09 14:20:30;;;;;;;4.82;2.92;;;;;;;13.02;74.33;100770.09;10354160;28;20069;-78
2022/11/09 14:25:34;;;;;;;5.90;1.92;;;;;;;13.17;74.19;100782.88;10310505;28;20117;-78
2022/11/09 14:30:45;;;;;;;4.50;2.17;;;;;;;13.58;71.79;100790.47;10351726;28;20041;-79
2022/11/09 14:35:46;;;;;;;3.73;2.00;;;;;;;13.44;72.20;100797.00;10342634;28;20042;-81
2022/11/09 14:40:47;;;;;;;4.18;1.50;;;;;;;12.75;75.31;100790.97;10360017;28;20087;-78
2022/11/09 14:45:48;;;;;;;8.15;1.67;;;;;;;12.29;77.20;100808.50;10343032;28;20719;-79
2022/11/09 14:50:50;;;;;;;10.13;1.77;;;;;;;11.95;79.72;100807.97;10339928;28;20038;-78
2022/11/09 14:55:52;;;;;;;6.85;2.60;;;;;;;11.64;81.83;100811.94;10346002;28;20046;-77
2022/11/09 15:01:14;;;;;;;4.85;1.45;;;;;;;11.45;82.44;100826.88;10345387;28;20046;-77
2022/11/09 15:06:16;;;;;;;2.50;1.23;;;;;;;11.34;83.11;100837.72;10361116;28;20128;-77
2022/11/09 15:11:16;;;;;;;6.95;2.17;;;;;;;11.28;83.49;100838.34;10362784;28;20042;-78
2022/11/09 15:16:25;;;;;;;3.03;1.38;;;;;;;11.15;84.53;100839.53;10361373;28;20125;-79
2022/11/09 15:21:26;;;;;;;4.80;1.35;;;;;;;11.04;85.39;100839.03;10361333;28;20049;-78
2022/11/09 15:26:32;;;;;;;6.72;1.92;;;;;;;11.06;85.43;100840.00;10389039;28;20409;-77
2022/11/09 15:31:33;;;;;;;5.30;2.75;;;;;;;10.90;86.54;100846.28;10364450;28;20056;-78
2022/11/09 15:36:34;;;;;;;8.00;2.40;;;;;;;10.68;87.70;100842.66;10362962;28;20030;-78
2022/11/09 15:41:35;;;;;;;6.70;1.58;;;;;;;10.57;88.29;100850.00;10346152;28;20049;-78
2022/11/09 15:46:53;;;;;;;3.10;1.77;;;;;;;10.38;90.08;100866.53;10363502;28;20038;-77
2022/11/09 15:51:54;;;;;;;8.77;2.33;;;;;;;10.28;90.98;100872.13;10358259;28;20030;-77
2022/11/09 15:56:55;;;;;;;8.82;1.92;;;;;;;10.21;90.79;100889.22;10358580;28;20125;-78
2022/11/09 16:01:55;;;;;;;6.03;1.55;;;;;;;10.04;92.27;100879.63;10359944;28;20094;-77
2022/11/09 16:06:56;;;;;;;5.85;2.55;;;;;;;9.94;93.06;100887.03;10362274;28;20474;-78
2022/11/09 16:11:57;;;;;;;7.00;2.25;;;;;;;9.72;93.15;100903.34;10362548;28;20030;-77
2022/11/09 16:16:57;;;;;;;6.15;2.50;;;;;;;9.47;95.50;100907.28;10361564;28;20061;-77
2022/11/09 16:22:00;;;;;;;4.97;1.88;;;;;;;9.49;96.52;100921.31;10360784;28;20535;-77
2022/11/09 16:27:01;;;;;;;5.50;1.83;;;;;;;9.68;95.60;100917.06;10362310;28;20037;-77
2022/11/09 16:32:02;;;;;;;5.57;2.13;;;;;;;9.81;92.81;100914.28;10342855;28;20057;-77
2022/11/09 16:37:02;;;;;;;7.05;1.65;;;;;;;9.82;92.01;100926.53;10358999;28;20068;-77
2022/11/09 16:42:05;;;;;;;7.57;2.25;;;;;;;9.86;91.34;100930.19;10344508;28;20557;-78
2022/11/09 16:47:08;;;;;;;9.18;7.40;;;;;;;9.95;89.90;100945.44;10342748;28;20073;-81
2022/11/09 16:52:08;;;;;;;9.55;2.38;;;;;;;9.94;89.07;100965.47;10331679;28;20380;-78
2022/11/09 16:57:09;;;;;;;28.02;3.00;;;;;;;9.88;89.20;100979.94;10361874;28;20117;-76
2022/11/09 17:02:09;;;;;;;11.27;1.77;;;;;;;9.79;89.46;100978.66;10357142;28;20042;-79
2022/11/09 17:07:10;;;;;;;9.18;1.90;;;;;;;9.70;90.06;100983.38;10355407;28;20192;-79
2022/11/09 17:12:10;;;;;;;5.45;1.45;;;;;;;9.67;90.51;100999.78;10357703;28;20080;-79
2022/11/09 17:17:11;;;;;;;5.28;1.20;;;;;;;9.62;91.30;101006.47;10342999;28;20150;-78
2022/11/09 17:22:13;;;;;;;6.13;2.78;;;;;;;9.74;90.93;101011.47;10356210;28;20037;-78
2022/11/09 17:27:14;;;;;;;8.18;1.80;;;;;;;9.66;91.94;101020.63;10364028;28;20054;-78
2022/11/09 17:32:14;;;;;;;18.10;3.03;;;;;;;9.49;92.50;101036.28;10345967;28;20034;-78
2022/11/09 17:37:15;;;;;;;8.55;3.17;;;;;;;9.36;93.33;101049.50;10354080;28;20435;-78
2022/11/09 17:42:16;;;;;;;6.65;2.20;;;;;;;9.31;94.79;101051.81;10348553;28;20077;-78
2022/11/09 17:47:16;;;;;;;6.65;2.45;;;;;;;9.15;95.61;101049.16;10340224;28;20038;-78
2022/11/09 17:52:17;;;;;;;10.80;2.00;;;;;;;9.13;95.86;101074.28;10347607;28;20069;-77
2022/11/09 17:57:17;;;;;;;6.80;2.25;;;;;;;9.17;96.29;101078.88;10339488;28;20517;-81
2022/11/09 18:02:18;;;;;;;5.65;1.83;;;;;;;9.30;96.10;101080.50;10350623;28;20058;-78
2022/11/09 18:07:18;;;;;;;3.35;1.80;;;;;;;9.25;95.43;101086.34;10352910;28;20033;-79
2022/11/09 18:12:19;;;;;;;5.78;2.33;;;;;;;9.18;95.65;101093.72;10366067;28;20429;-78
2022/11/09 18:17:19;;;;;;;8.38;2.75;;;;;;;9.00;96.48;101098.81;10365640;28;20076;-77
2022/11/09 18:22:20;;;;;;;5.50;2.78;;;;;;;8.91;97.27;101102.69;10364182;28;20080;-78
2022/11/09 18:27:20;;;;;;;5.70;1.73;;;;;;;8.93;97.82;101113.22;10362000;28;20132;-79
2022/11/09 18:32:21;;;;;;;5.35;1.90;;;;;;;8.85;97.94;101122.31;10364822;28;20034;-78
2022/11/09 18:37:22;;;;;;;11.32;2.78;;;;;;;8.79;98.07;101123.75;10363032;28;20049;-77
2022/11/09 18:42:22;;;;;;;6.10;2.35;;;;;;;8.75;97.67;101134.81;10359915;28;20044;-79
2022/11/09 18:47:24;;;;;;;4.63;2.05;;;;;;;8.66;98.33;101140.41;10363865;28;20141;-78
2022/11/09 18:52:24;;;;;;;5.80;2.20;;;;;;;8.68;98.56;101147.41;10363819;28;20046;-77
2022/11/09 18:57:25;;;;;;;5.53;2.45;;;;;;;8.53;98.30;101137.88;10362757;28;20132;-78
2022/11/09 19:02:25;;;;;;;5.95;2.40;;;;;;;8.50;99.15;101149.00;10364593;28;22925;-82
2022/11/09 19:07:27;;;;;;;7.57;3.40;;;;;;;8.56;98.40;101163.22;10360594;28;20034;-80
2022/11/09 19:12:29;;;;;;;9.38;3.58;;;;;;;8.66;97.93;101176.00;10364703;28;20064;-77
2022/11/09 19:17:29;;;;;;;7.53;3.90;;;;;;;8.59;97.40;101176.44;10345580;28;20066;-80
2022/11/09 19:22:30;;;;;;;7.05;2.33;;;;;;;8.49;97.85;101175.88;10359541;28;20058;-79
2022/11/09 19:27:30;;;;;;;7.15;2.30;;;;;;;8.49;98.09;101183.72;10358596;28;20434;-80
2022/11/09 19:32:31;;;;;;;6.75;2.53;;;;;;;8.56;97.59;101189.31;10360873;28;20053;-77
2022/11/09 19:37:32;;;;;;;9.55;2.85;;;;;;;8.45;98.04;101199.94;10360386;28;20088;-79
2022/11/09 19:42:33;;;;;;;6.85;2.85;;;;;;;8.36;98.17;101202.00;10360771;28;20129;-79
2022/11/09 19:47:34;;;;;;;6.27;2.17;;;;;;;8.28;98.66;101206.75;10361812;28;20482;-79
2022/11/09 19:52:36;;;;;;;12.55;3.28;;;;;;;8.24;98.81;101225.63;10361331;28;20304;-78
2022/11/09 19:57:37;;;;;;;7.75;2.33;;;;;;;8.14;98.62;101228.44;10356739;28;20092;-78
2022/11/09 20:02:38;;;;;;;8.40;2.75;;;;;;;8.09;99.11;101238.56;10361690;28;20166;-77
2022/11/09 20:07:39;;;;;;;22.98;3.17;;;;;;;8.25;99.16;101247.38;10338963;28;20041;-77
2022/11/09 20:12:49;;;;;;;5.32;2.08;;;;;;;8.25;98.64;101255.19;10358545;28;20414;-78
2022/11/09 20:17:49;;;;;;;7.90;2.08;;;;;;;8.27;98.32;101271.84;10357987;28;20038;-78
2022/11/09 20:22:51;;;;;;;5.32;1.98;;;;;;;8.14;99.11;101272.78;10342952;28;20042;-77
2022/11/09 20:27:51;;;;;;;12.18;3.00;;;;;;;8.13;99.27;101277.06;10359039;28;20124;-79
2022/11/09 20:32:52;;;;;;;21.65;3.03;;;;;;;8.08;99.71;101292.44;10358792;28;20048;-79
2022/11/09 20:37:52;;;;;;;6.07;2.45;;;;;;;8.22;99.81;101290.69;10357872;28;20042;-79
2022/11/09 20:42:53;;;;;;;17.45;4.32;;;;;;;8.19;99.42;101307.88;10358533;28;20120;-78
2022/11/09 20:47:56;;;;;;;10.32;2.85;;;;;;;8.04;99.73;101312.97;10357673;28;20048;-78
2022/11/09 20:53:02;;;;;;;6.65;2.60;;;;;;;7.99;100.00;101311.78;10357537;28;20030;-78
2022/11/09 20:58:04;;;;;;;8.48;1.85;;;;;;;8.00;100.00;101319.72;10372812;28;20046;-79
2022/11/09 21:03:07;;;;;;;8.57;3.45;;;;;;;8.02;100.00;101322.41;10342020;28;20034;-79
2022/11/09 21:08:07;;;;;;;11.75;4.32;;;;;;;7.94;100.00;101335.84;10339864;28;20490;-79
2022/11/09 21:13:08;;;;;;;5.72;3.15;;;;;;;7.94;100.00;101345.38;10358431;28;20030;-79
2022/11/09 21:18:08;;;;;;;7.72;2.78;;;;;;;7.97;100.00;101342.03;10340971;28;20108;-79
2022/11/09 21:33:35;;;;;;;5.45;2.85;;;;;;;7.91;100.00;101364.28;10347674;28;20410;-80
2022/11/09 21:38:36;;;;;;;10.48;3.58;;;;;;;7.91;100.00;101363.41;10358324;28;20030;-81
2022/11/09 21:43:37;;;;;;;9.57;2.88;;;;;;;7.92;100.00;101360.88;10357801;28;20033;-81
2022/11/09 21:48:37;;;;;;;12.50;3.97;;;;;;;7.79;100.00;101373.91;10358079;28;20056;-81
2022/11/09 21:53:38;;;;;;;17.05;4.53;;;;;;;7.77;100.00;101378.09;10358582;28;20066;-79
2022/11/09 21:58:38;;;;;;;8.90;5.70;;;;;;;7.87;100.00;101387.47;10355738;28;20041;-80
2022/11/09 22:03:40;;;;;;;9.45;3.47;;;;;;;7.86;100.00;101383.06;10353849;28;20547;-79
2022/11/09 22:08:41;;;;;;;14.55;3.47;;;;;;;7.85;100.00;101387.34;10355880;28;20420;-78
2022/11/09 22:24:20;;;;;;;9.15;4.93;;;;;;;7.85;100.00;101397.78;10357857;28;20034;-78
2022/11/09 22:29:20;;;;;;;10.27;3.58;;;;;;;7.73;100.00;101395.25;10359366;28;20041;-79
2022/11/09 22:34:21;;;;;;;10.70;4.40;;;;;;;7.60;100.00;101396.09;10357184;28;20049;-78
2022/11/09 22:39:21;;;;;;;10.57;5.18;;;;;;;7.55;100.00;101405.31;10341560;28;20040;-78
2022/11/09 22:44:22;;;;;;;11.10;3.33;;;;;;;7.76;100.00;101407.56;10357733;28;20056;-78
2022/11/09 22:49:22;;;;;;;8.27;3.72;;;;;;;7.86;100.00;101422.16;10356601;28;20057;-78
2022/11/09 22:54:23;;;;;;;8.52;3.58;;;;;;;7.88;100.00;101437.06;10339968;28;20121;-79
2022/11/09 22:59:23;;;;;;;12.73;4.97;;;;;;;7.85;100.00;101444.69;10365230;28;20037;-79
2022/11/09 23:04:24;;;;;;;9.27;3.80;;;;;;;7.87;100.00;101455.22;10364347;28;20142;-79
2022/11/09 23:09:24;;;;;;;12.65;4.45;;;;;;;7.91;100.00;101442.50;10349528;28;20034;-78
2022/11/09 23:19:44;;;;;;;12.32;3.33;;;;;;;7.75;100.00;101466.63;10364328;28;20030;-79
2022/11/09 23:30:04;;;;;;;10.57;3.95;;;;;;;7.75;100.00;101482.25;10365412;28;20062;-78
2022/11/09 23:35:05;;;;;;;10.88;3.80;;;;;;;7.87;100.00;101490.00;10363807;28;20042;-78
2022/11/09 23:40:07;;;;;;;9.30;3.72;;;;;;;8.03;100.00;101497.19;10365169;28;20061;-78
2022/11/09 23:45:08;;;;;;;15.23;3.78;;;;;;;7.98;100.00;101505.47;10365316;28;20030;-78